Flight Briefing for CPX657

Departure Arrival
Southwest Florida International Airport (KRSW)
Click to view FAA NOTAMS
Miami International Airport (KMIA)
Click to view FAA NOTAMS
Departure Time Arrival Time
N/A N/A
Aircraft Distance
SF340AF 91nm
Departure METAR Arrival METAR
KRSW 250253Z 09007KT 10SM CLR 24/18 A3010 RMK AO2 SLP192 T02390178 53014 KMIA 250253Z 07010KT 10SM FEW039 26/18 A3009 RMK AO2 SLP190 T02610178 53011
Suggested Route
CYY CYY9


View recent IFR Routes data
Notes



Charts and Procedures

Charts for KRSW
No chart available
Charts for KMIA
No chart available

Windy.com Weather Map